sensor_id;sensor_type;location;lat;lon;timestamp;P1;durP1;ratioP1;P2;durP2;ratioP2
69253;SDS011;56364;41.816;12.448;2023-04-09T00:00:37;11.93;;;4.28;;
69253;SDS011;56364;41.816;12.448;2023-04-09T00:03:03;9.60;;;3.72;;
69253;SDS011;56364;41.816;12.448;2023-04-09T00:05:39;7.03;;;3.85;;
69253;SDS011;56364;41.816;12.448;2023-04-09T00:08:05;10.10;;;4.00;;
69253;SDS011;56364;41.816;12.448;2023-04-09T00:10:32;8.70;;;3.58;;
69253;SDS011;56364;41.816;12.448;2023-04-09T00:12:58;8.55;;;4.07;;
69253;SDS011;56364;41.816;12.448;2023-04-09T00:15:24;7.80;;;4.38;;
69253;SDS011;56364;41.816;12.448;2023-04-09T00:17:50;7.40;;;3.22;;
69253;SDS011;56364;41.816;12.448;2023-04-09T00:20:17;8.93;;;4.22;;
69253;SDS011;56364;41.816;12.448;2023-04-09T00:22:43;8.93;;;3.72;;
69253;SDS011;56364;41.816;12.448;2023-04-09T00:25:09;12.57;;;3.75;;
69253;SDS011;56364;41.816;12.448;2023-04-09T00:27:35;7.20;;;3.33;;
69253;SDS011;56364;41.816;12.448;2023-04-09T00:30:02;8.30;;;4.32;;
69253;SDS011;56364;41.816;12.448;2023-04-09T00:32:28;10.73;;;3.95;;
69253;SDS011;56364;41.816;12.448;2023-04-09T00:34:54;6.35;;;3.25;;
69253;SDS011;56364;41.816;12.448;2023-04-09T00:37:20;9.10;;;3.63;;
69253;SDS011;56364;41.816;12.448;2023-04-09T00:39:46;9.63;;;3.63;;
69253;SDS011;56364;41.816;12.448;2023-04-09T00:42:12;7.75;;;3.33;;
69253;SDS011;56364;41.816;12.448;2023-04-09T00:44:38;8.18;;;3.60;;
69253;SDS011;56364;41.816;12.448;2023-04-09T00:47:04;7.63;;;3.35;;
69253;SDS011;56364;41.816;12.448;2023-04-09T00:49:30;7.80;;;3.53;;
69253;SDS011;56364;41.816;12.448;2023-04-09T00:51:56;8.25;;;3.55;;
69253;SDS011;56364;41.816;12.448;2023-04-09T00:54:23;6.65;;;3.20;;
69253;SDS011;56364;41.816;12.448;2023-04-09T00:56:49;8.15;;;3.40;;
69253;SDS011;56364;41.816;12.448;2023-04-09T00:59:15;8.43;;;3.72;;
69253;SDS011;56364;41.816;12.448;2023-04-09T01:01:41;13.02;;;4.28;;
69253;SDS011;56364;41.816;12.448;2023-04-09T01:04:07;8.63;;;4.25;;
69253;SDS011;56364;41.816;12.448;2023-04-09T01:22:21;11.82;;;3.50;;
69253;SDS011;56364;41.816;12.448;2023-04-09T01:27:15;7.32;;;3.00;;
69253;SDS011;56364;41.816;12.448;2023-04-09T01:29:44;6.65;;;3.22;;
69253;SDS011;56364;41.816;12.448;2023-04-09T01:32:12;4.70;;;2.72;;
69253;SDS011;56364;41.816;12.448;2023-04-09T01:34:40;7.22;;;3.20;;
69253;SDS011;56364;41.816;12.448;2023-04-09T01:37:07;6.32;;;2.92;;
69253;SDS011;56364;41.816;12.448;2023-04-09T01:41:59;9.18;;;3.35;;
69253;SDS011;56364;41.816;12.448;2023-04-09T01:44:27;5.80;;;3.17;;
69253;SDS011;56364;41.816;12.448;2023-04-09T02:02:26;9.80;;;3.85;;
69253;SDS011;56364;41.816;12.448;2023-04-09T02:04:53;10.18;;;3.85;;
69253;SDS011;56364;41.816;12.448;2023-04-09T02:09:48;9.80;;;3.45;;
69253;SDS011;56364;41.816;12.448;2023-04-09T02:12:16;6.82;;;3.30;;
69253;SDS011;56364;41.816;12.448;2023-04-09T02:14:44;7.45;;;3.35;;
69253;SDS011;56364;41.816;12.448;2023-04-09T02:17:11;9.50;;;3.58;;
69253;SDS011;56364;41.816;12.448;2023-04-09T02:24:32;6.15;;;3.08;;
69253;SDS011;56364;41.816;12.448;2023-04-09T02:26:58;9.38;;;3.33;;
69253;SDS011;56364;41.816;12.448;2023-04-09T02:29:24;9.27;;;3.33;;
69253;SDS011;56364;41.816;12.448;2023-04-09T02:31:50;7.20;;;3.65;;
69253;SDS011;56364;41.816;12.448;2023-04-09T02:34:25;7.75;;;3.50;;
69253;SDS011;56364;41.816;12.448;2023-04-09T02:36:51;7.68;;;3.17;;
69253;SDS011;56364;41.816;12.448;2023-04-09T02:39:17;5.63;;;2.65;;
69253;SDS011;56364;41.816;12.448;2023-04-09T02:41:43;6.60;;;3.13;;
69253;SDS011;56364;41.816;12.448;2023-04-09T02:44:13;8.13;;;3.50;;
69253;SDS011;56364;41.816;12.448;2023-04-09T02:46:43;7.20;;;3.00;;
69253;SDS011;56364;41.816;12.448;2023-04-09T02:49:09;9.32;;;3.38;;
69253;SDS011;56364;41.816;12.448;2023-04-09T02:51:35;6.53;;;2.78;;
69253;SDS011;56364;41.816;12.448;2023-04-09T02:54:01;6.15;;;3.22;;
69253;SDS011;56364;41.816;12.448;2023-04-09T02:56:27;6.65;;;2.90;;
69253;SDS011;56364;41.816;12.448;2023-04-09T02:58:53;5.93;;;3.15;;
69253;SDS011;56364;41.816;12.448;2023-04-09T03:01:19;6.07;;;3.03;;
69253;SDS011;56364;41.816;12.448;2023-04-09T03:03:45;6.85;;;2.95;;
69253;SDS011;56364;41.816;12.448;2023-04-09T03:06:12;8.25;;;3.47;;
69253;SDS011;56364;41.816;12.448;2023-04-09T03:08:38;7.72;;;3.47;;
69253;SDS011;56364;41.816;12.448;2023-04-09T03:11:04;5.15;;;2.58;;
69253;SDS011;56364;41.816;12.448;2023-04-09T03:13:30;7.25;;;3.10;;
69253;SDS011;56364;41.816;12.448;2023-04-09T03:15:56;5.45;;;2.83;;
69253;SDS011;56364;41.816;12.448;2023-04-09T03:18:22;7.85;;;3.10;;
69253;SDS011;56364;41.816;12.448;2023-04-09T03:20:48;4.88;;;2.53;;
69253;SDS011;56364;41.816;12.448;2023-04-09T03:23:14;6.00;;;3.08;;
69253;SDS011;56364;41.816;12.448;2023-04-09T03:25:40;4.35;;;2.35;;
69253;SDS011;56364;41.816;12.448;2023-04-09T03:28:06;4.10;;;2.75;;
69253;SDS011;56364;41.816;12.448;2023-04-09T03:30:32;6.57;;;2.95;;
69253;SDS011;56364;41.816;12.448;2023-04-09T03:32:59;5.65;;;3.15;;
69253;SDS011;56364;41.816;12.448;2023-04-09T03:35:25;6.30;;;2.83;;
69253;SDS011;56364;41.816;12.448;2023-04-09T03:37:51;6.50;;;2.95;;
69253;SDS011;56364;41.816;12.448;2023-04-09T03:40:17;7.40;;;3.13;;
69253;SDS011;56364;41.816;12.448;2023-04-09T03:42:43;4.85;;;2.80;;
69253;SDS011;56364;41.816;12.448;2023-04-09T03:45:09;5.47;;;2.78;;
69253;SDS011;56364;41.816;12.448;2023-04-09T03:50:05;3.38;;;2.05;;
69253;SDS011;56364;41.816;12.448;2023-04-09T03:52:31;5.13;;;2.50;;
69253;SDS011;56364;41.816;12.448;2023-04-09T03:54:57;5.95;;;2.63;;
69253;SDS011;56364;41.816;12.448;2023-04-09T03:57:24;6.03;;;2.92;;
69253;SDS011;56364;41.816;12.448;2023-04-09T03:59:50;5.55;;;2.72;;
69253;SDS011;56364;41.816;12.448;2023-04-09T04:02:16;5.43;;;2.90;;
69253;SDS011;56364;41.816;12.448;2023-04-09T04:04:52;6.05;;;2.92;;
69253;SDS011;56364;41.816;12.448;2023-04-09T04:07:18;5.07;;;2.80;;
69253;SDS011;56364;41.816;12.448;2023-04-09T04:09:44;6.03;;;3.05;;
69253;SDS011;56364;41.816;12.448;2023-04-09T04:12:10;6.45;;;2.90;;
69253;SDS011;56364;41.816;12.448;2023-04-09T04:14:36;6.43;;;3.10;;
69253;SDS011;56364;41.816;12.448;2023-04-09T04:17:02;6.35;;;2.97;;
69253;SDS011;56364;41.816;12.448;2023-04-09T04:19:50;4.20;;;2.17;;
69253;SDS011;56364;41.816;12.448;2023-04-09T04:22:16;5.15;;;2.75;;
69253;SDS011;56364;41.816;12.448;2023-04-09T04:24:42;7.05;;;3.08;;
69253;SDS011;56364;41.816;12.448;2023-04-09T04:27:08;7.88;;;2.90;;
69253;SDS011;56364;41.816;12.448;2023-04-09T04:29:34;7.45;;;3.00;;
69253;SDS011;56364;41.816;12.448;2023-04-09T04:32:01;4.38;;;2.50;;
69253;SDS011;56364;41.816;12.448;2023-04-09T04:34:27;5.90;;;2.55;;
69253;SDS011;56364;41.816;12.448;2023-04-09T04:36:53;8.27;;;3.05;;
69253;SDS011;56364;41.816;12.448;2023-04-09T04:39:20;6.20;;;2.90;;
69253;SDS011;56364;41.816;12.448;2023-04-09T04:41:46;9.68;;;3.15;;
69253;SDS011;56364;41.816;12.448;2023-04-09T04:44:12;5.75;;;3.03;;
69253;SDS011;56364;41.816;12.448;2023-04-09T04:46:38;6.15;;;3.03;;
69253;SDS011;56364;41.816;12.448;2023-04-09T04:49:04;7.63;;;2.88;;
69253;SDS011;56364;41.816;12.448;2023-04-09T04:51:30;5.80;;;2.80;;
69253;SDS011;56364;41.816;12.448;2023-04-09T04:53:56;5.90;;;2.90;;
69253;SDS011;56364;41.816;12.448;2023-04-09T04:56:22;5.20;;;2.38;;
69253;SDS011;56364;41.816;12.448;2023-04-09T04:58:48;4.28;;;2.45;;
69253;SDS011;56364;41.816;12.448;2023-04-09T05:01:14;6.07;;;3.08;;
69253;SDS011;56364;41.816;12.448;2023-04-09T05:03:40;7.10;;;2.78;;
69253;SDS011;56364;41.816;12.448;2023-04-09T05:06:06;6.57;;;3.20;;
69253;SDS011;56364;41.816;12.448;2023-04-09T05:24:07;6.95;;;2.92;;
69253;SDS011;56364;41.816;12.448;2023-04-09T05:26:34;12.50;;;3.08;;
69253;SDS011;56364;41.816;12.448;2023-04-09T05:29:00;15.65;;;3.90;;
69253;SDS011;56364;41.816;12.448;2023-04-09T05:31:27;9.20;;;3.00;;
69253;SDS011;56364;41.816;12.448;2023-04-09T05:33:54;5.00;;;2.83;;
69253;SDS011;56364;41.816;12.448;2023-04-09T05:36:21;6.68;;;2.88;;
69253;SDS011;56364;41.816;12.448;2023-04-09T05:38:48;7.47;;;2.97;;
69253;SDS011;56364;41.816;12.448;2023-04-09T05:41:14;5.95;;;3.10;;
69253;SDS011;56364;41.816;12.448;2023-04-09T05:43:40;4.53;;;2.55;;
69253;SDS011;56364;41.816;12.448;2023-04-09T05:46:07;6.72;;;3.05;;
69253;SDS011;56364;41.816;12.448;2023-04-09T05:48:36;5.70;;;2.90;;
69253;SDS011;56364;41.816;12.448;2023-04-09T05:51:02;9.40;;;2.35;;
69253;SDS011;56364;41.816;12.448;2023-04-09T05:53:35;5.20;;;2.20;;
69253;SDS011;56364;41.816;12.448;2023-04-09T05:56:01;9.27;;;2.95;;
69253;SDS011;56364;41.816;12.448;2023-04-09T05:58:27;5.90;;;3.13;;
69253;SDS011;56364;41.816;12.448;2023-04-09T06:00:54;5.15;;;2.60;;
69253;SDS011;56364;41.816;12.448;2023-04-09T06:03:20;8.57;;;3.58;;
69253;SDS011;56364;41.816;12.448;2023-04-09T06:08:22;8.93;;;2.75;;
69253;SDS011;56364;41.816;12.448;2023-04-09T06:10:48;6.38;;;2.95;;
69253;SDS011;56364;41.816;12.448;2023-04-09T06:13:14;4.05;;;2.67;;
69253;SDS011;56364;41.816;12.448;2023-04-09T06:15:42;4.57;;;2.58;;
69253;SDS011;56364;41.816;12.448;2023-04-09T06:18:13;5.78;;;2.38;;
69253;SDS011;56364;41.816;12.448;2023-04-09T06:20:39;7.60;;;3.38;;
69253;SDS011;56364;41.816;12.448;2023-04-09T06:23:06;8.50;;;2.95;;
69253;SDS011;56364;41.816;12.448;2023-04-09T06:25:32;6.97;;;2.70;;
69253;SDS011;56364;41.816;12.448;2023-04-09T06:28:01;8.52;;;3.00;;
69253;SDS011;56364;41.816;12.448;2023-04-09T06:30:27;8.48;;;2.50;;
69253;SDS011;56364;41.816;12.448;2023-04-09T06:32:55;6.80;;;3.22;;
69253;SDS011;56364;41.816;12.448;2023-04-09T06:35:22;5.68;;;3.10;;
69253;SDS011;56364;41.816;12.448;2023-04-09T06:43:10;6.78;;;3.15;;
69253;SDS011;56364;41.816;12.448;2023-04-09T06:45:36;6.43;;;2.63;;
69253;SDS011;56364;41.816;12.448;2023-04-09T06:48:03;6.38;;;2.88;;
69253;SDS011;56364;41.816;12.448;2023-04-09T06:50:30;9.35;;;3.10;;
69253;SDS011;56364;41.816;12.448;2023-04-09T06:52:56;5.38;;;2.97;;
69253;SDS011;56364;41.816;12.448;2023-04-09T06:55:22;6.00;;;2.88;;
69253;SDS011;56364;41.816;12.448;2023-04-09T06:57:48;7.53;;;2.90;;
69253;SDS011;56364;41.816;12.448;2023-04-09T07:00:14;9.23;;;3.13;;
69253;SDS011;56364;41.816;12.448;2023-04-09T07:02:40;6.00;;;3.22;;
69253;SDS011;56364;41.816;12.448;2023-04-09T07:05:06;4.47;;;2.33;;
69253;SDS011;56364;41.816;12.448;2023-04-09T07:09:59;4.30;;;2.30;;
69253;SDS011;56364;41.816;12.448;2023-04-09T07:14:51;5.55;;;2.13;;
69253;SDS011;56364;41.816;12.448;2023-04-09T07:17:18;5.95;;;3.05;;
69253;SDS011;56364;41.816;12.448;2023-04-09T07:22:22;4.38;;;2.33;;
69253;SDS011;56364;41.816;12.448;2023-04-09T07:24:49;4.40;;;1.92;;
69253;SDS011;56364;41.816;12.448;2023-04-09T07:27:24;4.47;;;2.10;;
69253;SDS011;56364;41.816;12.448;2023-04-09T07:29:53;5.63;;;2.28;;
69253;SDS011;56364;41.816;12.448;2023-04-09T07:32:20;5.05;;;2.47;;
69253;SDS011;56364;41.816;12.448;2023-04-09T07:34:46;9.02;;;2.78;;
69253;SDS011;56364;41.816;12.448;2023-04-09T07:37:12;5.78;;;2.50;;
69253;SDS011;56364;41.816;12.448;2023-04-09T07:39:39;4.78;;;1.98;;
69253;SDS011;56364;41.816;12.448;2023-04-09T07:44:59;7.95;;;2.45;;
69253;SDS011;56364;41.816;12.448;2023-04-09T07:47:27;3.08;;;1.80;;
69253;SDS011;56364;41.816;12.448;2023-04-09T07:49:56;5.47;;;2.42;;
69253;SDS011;56364;41.816;12.448;2023-04-09T07:52:22;4.72;;;2.30;;
69253;SDS011;56364;41.816;12.448;2023-04-09T07:55:01;7.97;;;2.72;;
69253;SDS011;56364;41.816;12.448;2023-04-09T07:57:29;4.78;;;2.08;;
69253;SDS011;56364;41.816;12.448;2023-04-09T07:59:56;4.75;;;2.10;;
69253;SDS011;56364;41.816;12.448;2023-04-09T08:10:02;4.45;;;1.85;;
69253;SDS011;56364;41.816;12.448;2023-04-09T08:12:28;4.05;;;2.00;;
69253;SDS011;56364;41.816;12.448;2023-04-09T08:14:54;6.10;;;1.90;;
69253;SDS011;56364;41.816;12.448;2023-04-09T08:17:20;4.95;;;2.05;;
69253;SDS011;56364;41.816;12.448;2023-04-09T08:24:52;3.88;;;1.67;;
69253;SDS011;56364;41.816;12.448;2023-04-09T08:27:18;4.45;;;2.13;;
69253;SDS011;56364;41.816;12.448;2023-04-09T08:29:45;4.43;;;2.05;;
69253;SDS011;56364;41.816;12.448;2023-04-09T08:32:12;4.43;;;2.00;;
69253;SDS011;56364;41.816;12.448;2023-04-09T08:34:38;3.40;;;1.67;;
69253;SDS011;56364;41.816;12.448;2023-04-09T08:37:04;5.80;;;2.05;;
69253;SDS011;56364;41.816;12.448;2023-04-09T08:39:31;2.58;;;1.63;;
69253;SDS011;56364;41.816;12.448;2023-04-09T08:47:17;3.50;;;1.77;;
69253;SDS011;56364;41.816;12.448;2023-04-09T08:49:47;5.88;;;2.38;;
69253;SDS011;56364;41.816;12.448;2023-04-09T08:57:41;4.10;;;2.03;;
69253;SDS011;56364;41.816;12.448;2023-04-09T09:08:01;5.10;;;2.50;;
69253;SDS011;56364;41.816;12.448;2023-04-09T09:10:41;4.03;;;2.22;;
69253;SDS011;56364;41.816;12.448;2023-04-09T09:15:43;5.75;;;2.72;;
69253;SDS011;56364;41.816;12.448;2023-04-09T09:18:11;5.75;;;2.22;;
69253;SDS011;56364;41.816;12.448;2023-04-09T09:20:38;4.93;;;2.53;;
69253;SDS011;56364;41.816;12.448;2023-04-09T09:28:26;6.00;;;2.22;;
69253;SDS011;56364;41.816;12.448;2023-04-09T09:31:06;6.88;;;2.58;;
69253;SDS011;56364;41.816;12.448;2023-04-09T09:33:32;5.28;;;2.08;;
69253;SDS011;56364;41.816;12.448;2023-04-09T09:35:59;6.78;;;2.13;;
69253;SDS011;56364;41.816;12.448;2023-04-09T09:38:27;6.28;;;3.05;;
69253;SDS011;56364;41.816;12.448;2023-04-09T09:43:19;5.65;;;2.03;;
69253;SDS011;56364;41.816;12.448;2023-04-09T09:48:12;6.45;;;1.73;;
69253;SDS011;56364;41.816;12.448;2023-04-09T09:50:38;4.22;;;1.67;;
69253;SDS011;56364;41.816;12.448;2023-04-09T09:53:10;4.57;;;1.55;;
69253;SDS011;56364;41.816;12.448;2023-04-09T09:55:43;3.22;;;1.65;;
69253;SDS011;56364;41.816;12.448;2023-04-09T09:58:23;5.18;;;1.70;;
69253;SDS011;56364;41.816;12.448;2023-04-09T10:00:50;2.17;;;1.33;;
69253;SDS011;56364;41.816;12.448;2023-04-09T10:03:35;2.08;;;1.25;;
69253;SDS011;56364;41.816;12.448;2023-04-09T10:08:34;2.60;;;1.00;;
69253;SDS011;56364;41.816;12.448;2023-04-09T10:11:02;2.05;;;0.93;;
69253;SDS011;56364;41.816;12.448;2023-04-09T10:13:46;1.73;;;0.85;;
69253;SDS011;56364;41.816;12.448;2023-04-09T10:16:25;2.38;;;1.00;;
69253;SDS011;56364;41.816;12.448;2023-04-09T10:24:34;3.00;;;1.27;;
69253;SDS011;56364;41.816;12.448;2023-04-09T10:27:10;2.35;;;1.05;;
69253;SDS011;56364;41.816;12.448;2023-04-09T10:29:44;2.17;;;1.20;;
69253;SDS011;56364;41.816;12.448;2023-04-09T10:32:10;3.80;;;1.30;;
69253;SDS011;56364;41.816;12.448;2023-04-09T10:37:02;2.13;;;1.05;;
69253;SDS011;56364;41.816;12.448;2023-04-09T10:41:55;3.85;;;1.70;;
69253;SDS011;56364;41.816;12.448;2023-04-09T10:44:32;2.85;;;1.60;;
69253;SDS011;56364;41.816;12.448;2023-04-09T10:47:02;3.88;;;1.80;;
69253;SDS011;56364;41.816;12.448;2023-04-09T10:49:40;2.50;;;1.27;;
69253;SDS011;56364;41.816;12.448;2023-04-09T10:52:07;2.28;;;1.08;;
69253;SDS011;56364;41.816;12.448;2023-04-09T10:54:36;2.38;;;1.40;;
69253;SDS011;56364;41.816;12.448;2023-04-09T10:57:12;7.05;;;1.40;;
69253;SDS011;56364;41.816;12.448;2023-04-09T11:07:17;2.28;;;1.10;;
69253;SDS011;56364;41.816;12.448;2023-04-09T11:09:43;1.55;;;0.80;;
69253;SDS011;56364;41.816;12.448;2023-04-09T11:14:35;1.73;;;0.93;;
69253;SDS011;56364;41.816;12.448;2023-04-09T11:19:41;1.88;;;1.10;;
69253;SDS011;56364;41.816;12.448;2023-04-09T11:22:09;1.77;;;1.02;;
69253;SDS011;56364;41.816;12.448;2023-04-09T11:24:44;2.63;;;1.00;;
69253;SDS011;56364;41.816;12.448;2023-04-09T11:27:11;2.45;;;1.15;;
69253;SDS011;56364;41.816;12.448;2023-04-09T11:29:37;2.13;;;1.30;;
69253;SDS011;56364;41.816;12.448;2023-04-09T11:32:11;8.68;;;1.58;;
69253;SDS011;56364;41.816;12.448;2023-04-09T11:34:56;6.57;;;2.30;;
69253;SDS011;56364;41.816;12.448;2023-04-09T11:37:22;2.63;;;1.42;;
69253;SDS011;56364;41.816;12.448;2023-04-09T11:39:48;1.65;;;1.00;;
69253;SDS011;56364;41.816;12.448;2023-04-09T11:42:19;3.03;;;1.23;;
69253;SDS011;56364;41.816;12.448;2023-04-09T11:44:46;2.65;;;1.42;;
69253;SDS011;56364;41.816;12.448;2023-04-09T11:47:12;4.38;;;1.55;;
69253;SDS011;56364;41.816;12.448;2023-04-09T11:49:40;3.75;;;1.58;;
69253;SDS011;56364;41.816;12.448;2023-04-09T11:54:32;3.53;;;2.03;;
69253;SDS011;56364;41.816;12.448;2023-04-09T11:59:36;1.92;;;1.20;;
69253;SDS011;56364;41.816;12.448;2023-04-09T12:02:04;2.25;;;1.05;;
69253;SDS011;56364;41.816;12.448;2023-04-09T12:04:31;2.20;;;1.33;;
69253;SDS011;56364;41.816;12.448;2023-04-09T12:09:23;3.97;;;1.70;;
69253;SDS011;56364;41.816;12.448;2023-04-09T12:11:49;1.75;;;1.05;;
69253;SDS011;56364;41.816;12.448;2023-04-09T12:14:20;1.83;;;1.23;;
69253;SDS011;56364;41.816;12.448;2023-04-09T12:16:49;2.13;;;1.20;;
69253;SDS011;56364;41.816;12.448;2023-04-09T12:19:15;2.97;;;1.50;;
69253;SDS011;56364;41.816;12.448;2023-04-09T12:26:48;5.32;;;1.63;;
69253;SDS011;56364;41.816;12.448;2023-04-09T12:29:19;2.67;;;1.50;;
69253;SDS011;56364;41.816;12.448;2023-04-09T12:31:45;3.33;;;1.58;;
69253;SDS011;56364;41.816;12.448;2023-04-09T12:34:12;1.38;;;1.08;;
69253;SDS011;56364;41.816;12.448;2023-04-09T12:37:00;2.45;;;1.10;;
69253;SDS011;56364;41.816;12.448;2023-04-09T12:39:27;2.20;;;1.13;;
69253;SDS011;56364;41.816;12.448;2023-04-09T12:41:53;2.80;;;1.20;;
69253;SDS011;56364;41.816;12.448;2023-04-09T12:44:19;2.35;;;1.40;;
69253;SDS011;56364;41.816;12.448;2023-04-09T12:46:58;4.00;;;1.70;;
69253;SDS011;56364;41.816;12.448;2023-04-09T12:54:31;3.20;;;1.42;;
69253;SDS011;56364;41.816;12.448;2023-04-09T12:57:06;2.67;;;1.38;;
69253;SDS011;56364;41.816;12.448;2023-04-09T13:02:52;0.93;;;0.80;;
69253;SDS011;56364;41.816;12.448;2023-04-09T13:05:31;3.17;;;1.48;;
69253;SDS011;56364;41.816;12.448;2023-04-09T13:08:14;5.15;;;1.60;;
69253;SDS011;56364;41.816;12.448;2023-04-09T13:10:48;2.13;;;1.50;;
69253;SDS011;56364;41.816;12.448;2023-04-09T13:13:17;2.25;;;1.50;;
69253;SDS011;56364;41.816;12.448;2023-04-09T13:18:12;2.58;;;1.40;;
69253;SDS011;56364;41.816;12.448;2023-04-09T13:20:38;2.53;;;1.40;;
69253;SDS011;56364;41.816;12.448;2023-04-09T13:23:04;2.33;;;1.60;;
69253;SDS011;56364;41.816;12.448;2023-04-09T13:25:33;5.38;;;1.50;;
69253;SDS011;56364;41.816;12.448;2023-04-09T13:27:59;3.42;;;1.35;;
69253;SDS011;56364;41.816;12.448;2023-04-09T13:30:25;1.52;;;1.02;;
69253;SDS011;56364;41.816;12.448;2023-04-09T13:35:20;1.50;;;1.10;;
69253;SDS011;56364;41.816;12.448;2023-04-09T13:37:51;1.42;;;0.98;;
69253;SDS011;56364;41.816;12.448;2023-04-09T13:40:17;1.63;;;1.35;;
69253;SDS011;56364;41.816;12.448;2023-04-09T13:45:09;2.88;;;1.25;;
69253;SDS011;56364;41.816;12.448;2023-04-09T13:47:36;2.28;;;1.10;;
69253;SDS011;56364;41.816;12.448;2023-04-09T13:52:28;2.38;;;1.38;;
69253;SDS011;56364;41.816;12.448;2023-04-09T13:54:57;2.20;;;0.90;;
69253;SDS011;56364;41.816;12.448;2023-04-09T13:57:23;1.73;;;1.40;;
69253;SDS011;56364;41.816;12.448;2023-04-09T13:59:49;3.03;;;1.52;;
69253;SDS011;56364;41.816;12.448;2023-04-09T14:04:44;2.13;;;1.05;;
69253;SDS011;56364;41.816;12.448;2023-04-09T14:07:10;2.67;;;1.58;;
69253;SDS011;56364;41.816;12.448;2023-04-09T14:09:39;2.70;;;1.25;;
69253;SDS011;56364;41.816;12.448;2023-04-09T14:14:31;3.75;;;1.35;;
69253;SDS011;56364;41.816;12.448;2023-04-09T14:16:57;2.22;;;1.42;;
69253;SDS011;56364;41.816;12.448;2023-04-09T14:19:23;4.25;;;1.55;;
69253;SDS011;56364;41.816;12.448;2023-04-09T14:21:49;2.38;;;1.38;;
69253;SDS011;56364;41.816;12.448;2023-04-09T14:24:17;3.20;;;1.42;;
69253;SDS011;56364;41.816;12.448;2023-04-09T14:26:46;3.20;;;1.42;;
69253;SDS011;56364;41.816;12.448;2023-04-09T14:31:38;7.47;;;1.50;;
69253;SDS011;56364;41.816;12.448;2023-04-09T14:34:06;1.80;;;1.13;;
69253;SDS011;56364;41.816;12.448;2023-04-09T14:38:58;1.75;;;1.40;;
69253;SDS011;56364;41.816;12.448;2023-04-09T14:43:50;2.00;;;1.30;;
69253;SDS011;56364;41.816;12.448;2023-04-09T14:46:16;3.03;;;1.40;;
69253;SDS011;56364;41.816;12.448;2023-04-09T14:48:44;2.00;;;1.25;;
69253;SDS011;56364;41.816;12.448;2023-04-09T14:51:10;3.15;;;1.88;;
69253;SDS011;56364;41.816;12.448;2023-04-09T14:53:36;2.78;;;1.30;;
69253;SDS011;56364;41.816;12.448;2023-04-09T14:56:03;3.17;;;1.50;;
69253;SDS011;56364;41.816;12.448;2023-04-09T14:58:29;3.05;;;1.50;;
69253;SDS011;56364;41.816;12.448;2023-04-09T15:00:55;3.40;;;1.65;;
69253;SDS011;56364;41.816;12.448;2023-04-09T15:03:21;5.05;;;1.83;;
69253;SDS011;56364;41.816;12.448;2023-04-09T15:05:47;2.38;;;1.30;;
69253;SDS011;56364;41.816;12.448;2023-04-09T15:10:42;2.47;;;1.35;;
69253;SDS011;56364;41.816;12.448;2023-04-09T15:13:08;1.35;;;1.25;;
69253;SDS011;56364;41.816;12.448;2023-04-09T15:18:00;2.78;;;1.63;;
69253;SDS011;56364;41.816;12.448;2023-04-09T15:20:30;3.95;;;1.85;;
69253;SDS011;56364;41.816;12.448;2023-04-09T15:22:56;3.10;;;1.83;;
69253;SDS011;56364;41.816;12.448;2023-04-09T15:25:22;2.38;;;1.17;;
69253;SDS011;56364;41.816;12.448;2023-04-09T15:27:48;1.75;;;1.35;;
69253;SDS011;56364;41.816;12.448;2023-04-09T15:30:14;3.00;;;1.75;;
69253;SDS011;56364;41.816;12.448;2023-04-09T15:32:40;3.67;;;1.55;;
69253;SDS011;56364;41.816;12.448;2023-04-09T15:35:06;3.95;;;1.40;;
69253;SDS011;56364;41.816;12.448;2023-04-09T15:37:33;1.67;;;1.42;;
69253;SDS011;56364;41.816;12.448;2023-04-09T15:39:59;4.45;;;1.27;;
69253;SDS011;56364;41.816;12.448;2023-04-09T15:42:25;2.35;;;1.08;;
69253;SDS011;56364;41.816;12.448;2023-04-09T15:44:51;2.92;;;1.30;;
69253;SDS011;56364;41.816;12.448;2023-04-09T15:47:17;1.50;;;1.10;;
69253;SDS011;56364;41.816;12.448;2023-04-09T15:49:43;1.55;;;1.13;;
69253;SDS011;56364;41.816;12.448;2023-04-09T15:52:09;1.98;;;1.23;;
69253;SDS011;56364;41.816;12.448;2023-04-09T15:54:35;2.35;;;1.40;;
69253;SDS011;56364;41.816;12.448;2023-04-09T15:57:02;2.03;;;1.20;;
69253;SDS011;56364;41.816;12.448;2023-04-09T15:59:28;1.95;;;1.33;;
69253;SDS011;56364;41.816;12.448;2023-04-09T16:01:54;1.95;;;1.10;;
69253;SDS011;56364;41.816;12.448;2023-04-09T16:04:20;3.38;;;1.35;;
69253;SDS011;56364;41.816;12.448;2023-04-09T16:06:46;5.18;;;1.50;;
69253;SDS011;56364;41.816;12.448;2023-04-09T16:09:14;1.63;;;1.20;;
69253;SDS011;56364;41.816;12.448;2023-04-09T16:11:40;2.33;;;1.40;;
69253;SDS011;56364;41.816;12.448;2023-04-09T16:14:06;2.53;;;1.58;;
69253;SDS011;56364;41.816;12.448;2023-04-09T16:16:33;1.58;;;0.93;;
69253;SDS011;56364;41.816;12.448;2023-04-09T16:18:59;2.25;;;1.45;;
69253;SDS011;56364;41.816;12.448;2023-04-09T16:21:25;4.68;;;1.50;;
69253;SDS011;56364;41.816;12.448;2023-04-09T16:23:53;2.67;;;1.40;;
69253;SDS011;56364;41.816;12.448;2023-04-09T16:26:20;1.63;;;1.20;;
69253;SDS011;56364;41.816;12.448;2023-04-09T16:28:47;2.97;;;1.17;;
69253;SDS011;56364;41.816;12.448;2023-04-09T16:31:13;2.67;;;1.38;;
69253;SDS011;56364;41.816;12.448;2023-04-09T16:33:39;2.08;;;1.30;;
69253;SDS011;56364;41.816;12.448;2023-04-09T16:36:06;2.63;;;1.42;;
69253;SDS011;56364;41.816;12.448;2023-04-09T16:38:32;2.70;;;1.33;;
69253;SDS011;56364;41.816;12.448;2023-04-09T16:40:58;2.58;;;1.38;;
69253;SDS011;56364;41.816;12.448;2023-04-09T16:43:24;1.95;;;1.27;;
69253;SDS011;56364;41.816;12.448;2023-04-09T16:45:50;3.75;;;1.50;;
69253;SDS011;56364;41.816;12.448;2023-04-09T16:48:16;1.42;;;1.05;;
69253;SDS011;56364;41.816;12.448;2023-04-09T16:50:42;2.15;;;1.25;;
69253;SDS011;56364;41.816;12.448;2023-04-09T17:00:55;2.33;;;1.40;;
69253;SDS011;56364;41.816;12.448;2023-04-09T17:06:43;1.95;;;1.23;;
69253;SDS011;56364;41.816;12.448;2023-04-09T17:09:12;2.92;;;1.52;;
69253;SDS011;56364;41.816;12.448;2023-04-09T17:11:59;1.85;;;1.30;;
69253;SDS011;56364;41.816;12.448;2023-04-09T17:14:45;3.30;;;1.45;;
69253;SDS011;56364;41.816;12.448;2023-04-09T17:17:17;3.47;;;1.30;;
69253;SDS011;56364;41.816;12.448;2023-04-09T17:19:48;2.30;;;1.20;;
69253;SDS011;56364;41.816;12.448;2023-04-09T17:22:39;2.40;;;1.25;;
69253;SDS011;56364;41.816;12.448;2023-04-09T17:25:22;4.15;;;1.65;;
69253;SDS011;56364;41.816;12.448;2023-04-09T17:27:50;2.10;;;1.27;;
69253;SDS011;56364;41.816;12.448;2023-04-09T17:30:19;3.88;;;1.67;;
69253;SDS011;56364;41.816;12.448;2023-04-09T17:32:51;2.33;;;1.40;;
69253;SDS011;56364;41.816;12.448;2023-04-09T17:35:18;2.35;;;1.20;;
69253;SDS011;56364;41.816;12.448;2023-04-09T17:37:46;2.30;;;1.10;;
69253;SDS011;56364;41.816;12.448;2023-04-09T17:42:39;1.85;;;1.20;;
69253;SDS011;56364;41.816;12.448;2023-04-09T17:45:10;1.55;;;1.08;;
69253;SDS011;56364;41.816;12.448;2023-04-09T17:50:35;2.55;;;1.23;;
69253;SDS011;56364;41.816;12.448;2023-04-09T18:06:36;3.55;;;1.20;;
69253;SDS011;56364;41.816;12.448;2023-04-09T18:09:03;2.20;;;1.17;;
69253;SDS011;56364;41.816;12.448;2023-04-09T18:11:34;2.60;;;1.05;;
69253;SDS011;56364;41.816;12.448;2023-04-09T18:14:02;2.40;;;1.20;;
69253;SDS011;56364;41.816;12.448;2023-04-09T18:16:32;3.33;;;1.00;;
69253;SDS011;56364;41.816;12.448;2023-04-09T18:19:02;2.95;;;1.17;;
69253;SDS011;56364;41.816;12.448;2023-04-09T18:21:32;2.80;;;1.17;;
69253;SDS011;56364;41.816;12.448;2023-04-09T18:24:00;1.95;;;1.08;;